createdAt,value
2018-02-15T00:02:03.162Z,-0.26
2018-02-15T00:04:29.029Z,-0.29
2018-02-15T00:06:54.904Z,-0.28
2018-02-15T00:09:20.757Z,-0.38
2018-02-15T00:11:47.474Z,-0.36
2018-02-15T00:14:13.350Z,-0.34
2018-02-15T00:16:42.265Z,-0.32
2018-02-15T00:19:08.132Z,-0.31
2018-02-15T00:21:36.983Z,-0.31
2018-02-15T00:24:02.836Z,-0.31
2018-02-15T00:26:32.254Z,-0.32
2018-02-15T00:28:58.094Z,-0.31
2018-02-15T00:31:27.270Z,-0.34
2018-02-15T00:33:53.125Z,-0.29
2018-02-15T00:36:22.548Z,-0.32
2018-02-15T00:38:48.427Z,-0.53
2018-02-15T00:41:14.270Z,-0.60
2018-02-15T00:43:40.148Z,-0.65
2018-02-15T00:46:05.974Z,-0.73
2018-02-15T00:48:33.093Z,-0.73
2018-02-15T00:50:58.970Z,-0.75
2018-02-15T00:53:28.520Z,-0.62
2018-02-15T00:55:54.354Z,-0.52
2018-02-15T00:58:23.676Z,-0.45
2018-02-15T01:00:49.534Z,-0.40
2018-02-15T01:03:18.567Z,-0.36
2018-02-15T01:05:44.431Z,-0.36
2018-02-15T01:08:13.443Z,-0.36
2018-02-15T01:10:39.293Z,-0.49
2018-02-15T01:13:06.128Z,-0.49
2018-02-15T01:15:31.960Z,-0.51
2018-02-15T01:17:57.818Z,-0.44
2018-02-15T01:20:23.675Z,-0.42
2018-02-15T01:22:49.501Z,-0.45
2018-02-15T01:25:18.887Z,-0.43
2018-02-15T01:27:44.744Z,-0.46
2018-02-15T01:30:12.514Z,-0.60
2018-02-15T01:32:38.357Z,-0.68
2018-02-15T01:37:35.117Z,-0.49
2018-02-15T01:40:02.034Z,-0.46
2018-02-15T01:42:27.900Z,-0.49
2018-02-15T01:47:24.661Z,-0.49
2018-02-15T01:50:09.723Z,-0.48
2018-02-15T01:52:35.591Z,-0.52
2018-02-15T01:55:01.445Z,-0.46
2018-02-15T01:57:27.338Z,-0.46
2018-02-15T01:59:53.153Z,-0.44
2018-02-15T02:02:19.046Z,-0.39
2018-02-15T02:04:44.877Z,-0.40
2018-02-15T02:07:10.715Z,-0.42
2018-02-15T02:09:36.578Z,-0.35
2018-02-15T02:12:02.408Z,-0.36
2018-02-15T02:14:28.243Z,-0.37
2018-02-15T02:16:54.074Z,-0.36
2018-02-15T02:19:19.942Z,-0.47
2018-02-15T02:21:45.782Z,-0.43
2018-02-15T02:24:11.658Z,-0.35
2018-02-15T02:26:37.497Z,-0.36
2018-02-15T02:29:03.413Z,-0.35
2018-02-15T02:31:29.265Z,-0.38
2018-02-15T02:33:55.093Z,-0.35
2018-02-15T02:36:20.955Z,-0.43
2018-02-15T02:38:48.337Z,-0.41
2018-02-15T02:41:14.157Z,-0.38
2018-02-15T02:46:10.898Z,-0.30
2018-02-15T02:48:38.271Z,-0.26
2018-02-15T02:51:04.109Z,-0.25
2018-02-15T02:53:32.861Z,-0.30
2018-02-15T02:55:58.682Z,-0.31
2018-02-15T02:58:28.974Z,-0.28
2018-02-15T03:00:54.825Z,-0.28
2018-02-15T03:03:22.480Z,-0.20
2018-02-15T03:05:48.319Z,-0.21
2018-02-15T03:08:14.161Z,-0.20
2018-02-15T03:10:40.022Z,-0.20
2018-02-15T03:13:05.864Z,-0.11
2018-02-15T03:15:35.544Z,-0.10
2018-02-15T03:18:01.375Z,-0.06
2018-02-15T03:20:30.675Z,-0.09
2018-02-15T03:22:56.516Z,-0.06
2018-02-15T03:25:23.696Z,-0.09
2018-02-15T03:27:49.563Z,-0.08
2018-02-15T03:30:18.790Z,-0.02
2018-02-15T03:32:44.659Z,0.06
2018-02-15T03:35:14.528Z,0.07
2018-02-15T03:37:40.389Z,0.14
2018-02-15T03:40:07.551Z,0.13
2018-02-15T03:42:33.393Z,0.11
2018-02-15T03:44:59.257Z,0.16
2018-02-15T03:47:25.093Z,0.14
2018-02-15T03:49:50.932Z,0.28
2018-02-15T03:52:20.356Z,0.22
2018-02-15T03:54:46.199Z,0.18
2018-02-15T03:57:15.657Z,0.21
2018-02-15T03:59:41.490Z,0.20
2018-02-15T04:02:09.175Z,0.22
2018-02-15T04:04:35.034Z,0.19
2018-02-15T04:07:04.522Z,0.16
2018-02-15T04:09:30.375Z,0.17
2018-02-15T04:11:59.640Z,0.20
2018-02-15T04:14:25.509Z,0.18
2018-02-15T04:16:54.457Z,0.10
2018-02-15T04:19:20.298Z,0.07
2018-02-15T04:21:46.161Z,0.07
2018-02-15T04:24:12.033Z,0.09
2018-02-15T04:26:37.875Z,0.09
2018-02-15T04:29:05.156Z,0.06
2018-02-15T04:31:30.992Z,0.08
2018-02-15T04:34:00.115Z,0.10
2018-02-15T04:36:25.958Z,0.20
2018-02-15T04:38:55.524Z,0.24
2018-02-15T04:41:21.343Z,0.23
2018-02-15T04:43:50.298Z,0.21
2018-02-15T04:46:16.146Z,0.22
2018-02-15T04:48:43.963Z,0.28
2018-02-15T04:51:09.821Z,0.29
2018-02-15T04:53:38.902Z,0.23
2018-02-15T04:56:04.803Z,0.34
2018-02-15T04:58:30.734Z,0.30
2018-02-15T05:00:56.587Z,0.35
2018-02-15T05:03:22.444Z,0.25
2018-02-15T05:05:49.749Z,0.21
2018-02-15T05:08:15.580Z,0.25
2018-02-15T05:10:44.744Z,0.30
2018-02-15T05:13:10.571Z,0.36
2018-02-15T05:15:39.664Z,0.45
2018-02-15T05:18:05.560Z,0.50
2018-02-15T05:20:34.492Z,0.53
2018-02-15T05:23:00.331Z,0.51
2018-02-15T05:25:29.463Z,0.49
2018-02-15T05:27:55.283Z,0.49
2018-02-15T05:30:24.329Z,0.47
2018-02-15T05:32:50.209Z,0.47
2018-02-15T05:35:16.068Z,0.52
2018-02-15T05:37:41.886Z,0.48
2018-02-15T05:40:07.752Z,0.42
2018-02-15T05:42:35.235Z,0.53
2018-02-15T05:45:01.077Z,0.64
2018-02-15T05:47:30.262Z,0.71
2018-02-15T05:49:56.121Z,0.69
2018-02-15T05:52:25.857Z,0.70
2018-02-15T05:54:51.719Z,0.66
2018-02-15T05:57:20.691Z,0.73
2018-02-15T05:59:46.539Z,0.64
2018-02-15T06:02:15.545Z,0.72
2018-02-15T06:04:41.372Z,0.71
2018-02-15T06:07:08.855Z,0.77
2018-02-15T06:09:34.753Z,0.90
2018-02-15T06:12:00.613Z,0.91
2018-02-15T06:14:26.486Z,0.87
2018-02-15T06:16:52.436Z,0.99
2018-02-15T06:19:21.427Z,0.98
2018-02-15T06:21:47.326Z,0.95
2018-02-15T06:24:14.933Z,0.98
2018-02-15T06:26:40.831Z,1.08
2018-02-15T06:31:37.665Z,1.17
2018-02-15T06:34:05.097Z,1.22
2018-02-15T06:36:31.020Z,1.16
2018-02-15T06:39:00.135Z,1.12
2018-02-15T06:41:26.022Z,1.19
2018-02-15T06:43:55.035Z,1.18
2018-02-15T06:46:20.938Z,1.18
2018-02-15T06:48:46.830Z,1.22
2018-02-15T06:51:12.709Z,1.26
2018-02-15T06:53:38.609Z,1.27
2018-02-15T06:56:06.039Z,1.31
2018-02-15T06:58:31.920Z,1.35
2018-02-15T07:01:00.857Z,1.40
2018-02-15T07:03:26.769Z,1.47
2018-02-15T07:05:55.989Z,1.57
2018-02-15T07:08:21.886Z,1.60
2018-02-15T07:10:50.909Z,1.57
2018-02-15T07:13:16.792Z,1.55
2018-02-15T07:15:45.820Z,1.56
2018-02-15T07:18:11.728Z,1.43
2018-02-15T07:20:40.950Z,1.49
2018-02-15T07:23:06.846Z,1.56
2018-02-15T07:25:32.742Z,1.51
2018-02-15T07:27:58.600Z,1.49
2018-02-15T07:30:24.479Z,1.43
2018-02-15T07:32:51.609Z,1.28
2018-02-15T07:35:17.487Z,1.24
2018-02-15T07:37:46.515Z,1.18
2018-02-15T07:40:12.421Z,1.24
2018-02-15T07:42:41.696Z,1.23
2018-02-15T07:45:07.572Z,1.12
2018-02-15T07:47:37.031Z,1.13
2018-02-15T07:50:02.958Z,1.25
2018-02-15T07:52:30.072Z,1.28
2018-02-15T07:54:55.990Z,1.32
2018-02-15T07:57:24.792Z,1.40
2018-02-15T07:59:50.688Z,1.53
2018-02-15T08:02:16.568Z,1.68
2018-02-15T08:04:42.468Z,1.65
2018-02-15T08:07:08.380Z,1.59
2018-02-15T08:09:36.269Z,1.50
2018-02-15T08:12:02.152Z,1.40
2018-02-15T08:14:31.840Z,1.38
2018-02-15T08:16:57.705Z,1.20
2018-02-15T08:19:27.293Z,0.92
2018-02-15T08:21:53.150Z,0.62
2018-02-15T08:24:22.259Z,0.32
2018-02-15T08:26:48.144Z,0.32
2018-02-15T08:29:17.117Z,0.25
2018-02-15T08:31:42.981Z,0.31
2018-02-15T08:34:10.337Z,0.34
2018-02-15T08:36:36.225Z,0.42
2018-02-15T08:39:02.135Z,0.48
2018-02-15T08:41:28.050Z,0.46
2018-02-15T08:43:53.909Z,0.50
2018-02-15T08:46:23.342Z,0.54
2018-02-15T08:48:49.261Z,0.55
2018-02-15T08:51:16.816Z,0.61
2018-02-15T08:53:42.727Z,0.55
2018-02-15T08:56:12.314Z,0.45
2018-02-15T08:58:38.181Z,0.37
2018-02-15T09:01:07.558Z,0.53
2018-02-15T09:03:33.562Z,0.63
2018-02-15T09:06:00.536Z,0.56
2018-02-15T09:08:26.403Z,0.59
2018-02-15T09:10:55.723Z,0.55
2018-02-15T09:13:21.654Z,0.52
2018-02-15T09:15:47.555Z,0.63
2018-02-15T09:18:13.468Z,0.84
2018-02-15T09:20:39.375Z,0.89
2018-02-15T09:23:07.206Z,0.97
2018-02-15T09:25:33.070Z,0.93
2018-02-15T09:28:01.738Z,1.09
2018-02-15T09:30:27.648Z,1.17
2018-02-15T09:32:56.380Z,1.26
2018-02-15T09:35:22.261Z,1.32
2018-02-15T09:37:51.648Z,1.35
2018-02-15T09:40:17.547Z,1.36
2018-02-15T09:42:46.700Z,1.51
2018-02-15T09:45:12.565Z,1.54
2018-02-15T09:47:42.072Z,1.53
2018-02-15T09:50:07.996Z,1.65
2018-02-15T09:52:33.892Z,1.67
2018-02-15T09:54:59.812Z,1.67
2018-02-15T09:57:25.689Z,1.75
2018-02-15T09:59:53.102Z,1.82
2018-02-15T10:02:18.990Z,1.96
2018-02-15T10:04:47.965Z,1.88
2018-02-15T10:07:13.857Z,1.93
2018-02-15T10:09:43.076Z,2.03
2018-02-15T10:12:08.987Z,2.04
2018-02-15T10:14:36.672Z,2.00
2018-02-15T10:17:02.579Z,2.03
2018-02-15T10:19:31.862Z,2.14
2018-02-15T10:21:57.759Z,2.20
2018-02-15T10:24:26.956Z,2.25
2018-02-15T10:26:52.833Z,2.35
2018-02-15T10:29:18.728Z,2.45
2018-02-15T10:31:44.611Z,2.52
2018-02-15T10:34:10.494Z,2.59
2018-02-15T10:36:37.553Z,2.60
2018-02-15T10:39:03.477Z,2.63
2018-02-15T10:41:32.338Z,2.65
2018-02-15T10:43:58.242Z,2.59
2018-02-15T10:46:26.965Z,2.63
2018-02-15T10:48:52.853Z,2.68
2018-02-15T10:51:22.570Z,2.66
2018-02-15T10:53:48.458Z,2.61
2018-02-15T10:56:17.987Z,2.68
2018-02-15T10:58:43.893Z,2.67
2018-02-15T11:01:17.658Z,2.75
2018-02-15T11:03:43.581Z,2.75
2018-02-15T11:06:09.436Z,2.75
2018-02-15T11:08:35.349Z,2.78
2018-02-15T11:11:01.226Z,2.85
2018-02-15T11:13:27.130Z,2.90
2018-02-15T11:15:53.019Z,2.99
2018-02-15T11:18:18.898Z,3.01
2018-02-15T11:20:44.791Z,3.05
2018-02-15T11:23:12.395Z,3.08
2018-02-15T11:25:38.305Z,3.06
2018-02-15T11:28:07.142Z,3.06
2018-02-15T11:30:33.057Z,3.12
2018-02-15T11:33:01.764Z,3.11
2018-02-15T11:35:27.667Z,3.18
2018-02-15T11:37:57.141Z,3.16
2018-02-15T11:40:23.066Z,3.22
2018-02-15T11:42:48.935Z,3.17
2018-02-15T11:45:14.798Z,3.15
2018-02-15T11:47:40.781Z,3.10
2018-02-15T11:50:08.129Z,3.10
2018-02-15T11:52:34.062Z,3.08
2018-02-15T11:55:03.468Z,3.12
2018-02-15T11:57:29.357Z,3.17
2018-02-15T11:59:58.797Z,3.19
2018-02-15T12:02:24.690Z,3.25
2018-02-15T12:04:52.296Z,3.34
2018-02-15T12:07:18.191Z,3.36
2018-02-15T12:09:47.373Z,3.37
2018-02-15T12:12:13.305Z,3.42
2018-02-15T12:14:42.907Z,3.42
2018-02-15T12:17:08.818Z,3.45
2018-02-15T12:19:34.707Z,3.54
2018-02-15T12:22:00.602Z,3.64
2018-02-15T12:24:26.514Z,3.73
2018-02-15T12:26:53.952Z,3.83
2018-02-15T12:29:19.866Z,3.79
2018-02-15T12:31:49.601Z,3.77
2018-02-15T12:34:15.503Z,3.72
2018-02-15T12:36:44.730Z,3.70
2018-02-15T12:39:10.647Z,3.71
2018-02-15T12:41:37.673Z,3.76
2018-02-15T12:44:03.562Z,3.80
2018-02-15T12:46:32.233Z,3.78
2018-02-15T12:48:58.204Z,3.71
2018-02-15T12:51:27.605Z,3.69
2018-02-15T12:53:53.548Z,3.69
2018-02-15T12:56:19.446Z,3.66
2018-02-15T12:58:45.317Z,3.76
2018-02-15T13:01:11.209Z,3.84
2018-02-15T13:03:38.696Z,3.87
2018-02-15T13:06:04.605Z,3.79
2018-02-15T13:08:34.024Z,3.81
2018-02-15T13:10:59.914Z,3.86
2018-02-15T13:13:30.817Z,3.79
2018-02-15T13:16:09.047Z,3.79
2018-02-15T13:18:34.943Z,3.80
2018-02-15T13:21:00.858Z,3.86
2018-02-15T13:23:26.766Z,3.93
2018-02-15T13:25:52.694Z,3.91
2018-02-15T13:28:29.780Z,3.96
2018-02-15T13:30:55.665Z,3.98
2018-02-15T13:33:21.553Z,4.11
2018-02-15T13:35:47.433Z,4.18
2018-02-15T13:38:13.294Z,4.33
2018-02-15T13:40:39.190Z,4.36
2018-02-15T13:43:05.088Z,4.43
2018-02-15T13:45:30.968Z,4.51
2018-02-15T13:47:56.859Z,4.57
2018-02-15T13:50:22.754Z,4.49
2018-02-15T13:52:48.670Z,4.52
2018-02-15T13:55:14.582Z,4.52
2018-02-15T13:57:40.448Z,4.48
2018-02-15T14:00:06.339Z,4.42
2018-02-15T14:02:32.210Z,4.48
2018-02-15T14:04:58.099Z,4.53
2018-02-15T14:07:23.951Z,4.57
2018-02-15T14:09:49.847Z,4.64
2018-02-15T14:12:15.779Z,4.73
2018-02-15T14:14:41.684Z,4.73
2018-02-15T14:17:11.420Z,4.81
2018-02-15T14:19:37.295Z,4.82
2018-02-15T14:22:04.290Z,4.83
2018-02-15T14:24:30.165Z,4.94
2018-02-15T14:26:58.967Z,5.09
2018-02-15T14:29:24.858Z,5.15
2018-02-15T14:31:54.514Z,5.26
2018-02-15T14:34:20.389Z,5.22
2018-02-15T14:36:49.918Z,5.26
2018-02-15T14:39:15.809Z,5.29
2018-02-15T14:41:44.874Z,5.34
2018-02-15T14:44:10.774Z,5.40
2018-02-15T14:46:36.646Z,5.48
2018-02-15T14:49:02.542Z,5.51
2018-02-15T14:51:28.430Z,5.54
2018-02-15T14:53:54.916Z,5.56
2018-02-15T14:56:20.790Z,5.57
2018-02-15T14:58:50.269Z,5.52
2018-02-15T15:01:16.144Z,5.53
2018-02-15T15:03:45.309Z,5.49
2018-02-15T15:06:11.203Z,5.54
2018-02-15T15:08:40.577Z,5.55
2018-02-15T15:11:06.483Z,5.59
2018-02-15T15:13:33.650Z,5.59
2018-02-15T15:15:59.526Z,5.58
2018-02-15T15:18:28.899Z,5.59
2018-02-15T15:20:54.818Z,5.62
2018-02-15T15:23:20.715Z,5.73
2018-02-15T15:25:46.614Z,5.73
2018-02-15T15:28:12.465Z,5.74
2018-02-15T15:30:39.831Z,5.74
2018-02-15T15:33:05.705Z,5.72
2018-02-15T15:38:02.466Z,5.75
2018-02-15T15:40:30.046Z,5.78
2018-02-15T15:42:55.933Z,5.78
2018-02-15T15:45:25.108Z,5.82
2018-02-15T15:47:51.024Z,5.82
2018-02-15T15:50:20.343Z,5.88
2018-02-15T15:52:46.238Z,5.86
2018-02-15T15:55:13.558Z,5.90
2018-02-15T15:57:39.430Z,5.87
2018-02-15T16:00:05.347Z,5.84
2018-02-15T16:02:31.252Z,5.82
2018-02-15T16:04:57.138Z,5.86
2018-02-15T16:07:26.839Z,5.87
2018-02-15T16:09:52.722Z,5.90
2018-02-15T16:12:21.783Z,5.93
2018-02-15T16:14:47.680Z,5.94
2018-02-15T16:17:15.602Z,5.98
2018-02-15T16:19:41.465Z,6.00
2018-02-15T16:22:10.751Z,6.02
2018-02-15T16:24:36.627Z,6.01
2018-02-15T16:27:05.927Z,5.99
2018-02-15T16:29:31.809Z,5.97
2018-02-15T16:31:58.857Z,5.96
2018-02-15T16:34:24.764Z,5.99
2018-02-15T16:36:50.628Z,5.93
2018-02-15T16:39:16.514Z,5.97
2018-02-15T16:41:42.422Z,6.01
2018-02-15T16:44:11.991Z,5.99
2018-02-15T16:46:37.894Z,6.09
2018-02-15T16:49:07.039Z,6.03
2018-02-15T16:51:32.899Z,6.00
2018-02-15T16:54:00.293Z,6.04
2018-02-15T16:56:26.178Z,5.96
2018-02-15T16:58:55.361Z,6.07
2018-02-15T17:01:21.283Z,6.10
2018-02-15T17:03:50.534Z,6.18
2018-02-15T17:06:16.451Z,6.20
2018-02-15T17:08:46.094Z,6.26
2018-02-15T17:11:12.043Z,6.29
2018-02-15T17:13:37.916Z,6.35
2018-02-15T17:16:03.798Z,6.33
2018-02-15T17:18:29.682Z,6.38
2018-02-15T17:20:55.860Z,6.41
2018-02-15T17:23:21.742Z,6.40
2018-02-15T17:25:50.671Z,6.38
2018-02-15T17:28:16.548Z,6.43
2018-02-15T17:30:46.402Z,6.43
2018-02-15T17:33:12.299Z,6.38
2018-02-15T17:35:41.883Z,6.42
2018-02-15T17:38:07.795Z,6.41
2018-02-15T17:40:35.212Z,6.43
2018-02-15T17:43:01.091Z,6.46
2018-02-15T17:45:30.039Z,6.51
2018-02-15T17:47:55.918Z,6.51
2018-02-15T17:50:21.798Z,6.50
2018-02-15T17:52:47.670Z,6.52
2018-02-15T17:55:13.544Z,6.56
2018-02-15T17:57:42.475Z,6.57
2018-02-15T18:00:08.359Z,6.60
2018-02-15T18:02:37.698Z,6.62
2018-02-15T18:05:03.560Z,6.60
2018-02-15T18:07:31.225Z,6.65
2018-02-15T18:09:57.123Z,6.72
2018-02-15T18:12:26.833Z,6.78
2018-02-15T18:14:52.721Z,6.75
2018-02-15T18:17:21.907Z,6.71
2018-02-15T18:19:47.786Z,6.74
2018-02-15T18:22:14.984Z,6.71
2018-02-15T18:24:40.851Z,6.73
2018-02-15T18:27:06.741Z,6.75
2018-02-15T18:29:32.612Z,6.81
2018-02-15T18:31:58.489Z,6.81
2018-02-15T18:34:27.510Z,6.77
2018-02-15T18:36:53.404Z,6.75
2018-02-15T18:39:22.843Z,6.73
2018-02-15T18:41:48.712Z,6.74
2018-02-15T18:44:16.442Z,6.73
2018-02-15T18:46:42.362Z,6.79
2018-02-15T18:49:11.791Z,6.75
2018-02-15T18:51:37.736Z,6.70
2018-02-15T18:54:06.828Z,6.71
2018-02-15T18:56:32.702Z,6.72
2018-02-15T18:59:01.830Z,6.67
2018-02-15T19:01:27.706Z,6.68
2018-02-15T19:03:53.696Z,6.72
2018-02-15T19:06:19.653Z,6.68
2018-02-15T19:08:45.563Z,6.69
2018-02-15T19:11:11.797Z,6.71
2018-02-15T19:13:37.691Z,6.71
2018-02-15T19:16:06.716Z,6.78
2018-02-15T19:18:32.626Z,6.79
2018-02-15T19:21:01.444Z,6.90
2018-02-15T19:23:27.315Z,6.94
2018-02-15T19:25:56.167Z,6.93
2018-02-15T19:28:22.046Z,6.91
2018-02-15T19:30:51.922Z,6.87
2018-02-15T19:33:17.827Z,6.85
2018-02-15T19:35:45.671Z,6.84
2018-02-15T19:38:11.520Z,6.81
2018-02-15T19:40:37.412Z,6.79
2018-02-15T19:43:03.286Z,6.86
2018-02-15T19:45:29.159Z,6.92
2018-02-15T19:47:58.595Z,7.01
2018-02-15T19:50:24.486Z,7.03
2018-02-15T19:52:52.049Z,7.06
2018-02-15T19:55:17.902Z,6.98
2018-02-15T19:57:46.638Z,7.04
2018-02-15T20:00:12.501Z,7.08
2018-02-15T20:02:41.198Z,7.09
2018-02-15T20:05:07.153Z,7.10
2018-02-15T20:07:36.700Z,7.16
2018-02-15T20:10:02.578Z,7.13
2018-02-15T20:12:32.186Z,7.05
2018-02-15T20:14:58.085Z,7.00
2018-02-15T20:17:24.003Z,7.09
2018-02-15T20:19:56.028Z,7.10
2018-02-15T20:22:21.928Z,7.08
2018-02-15T20:24:47.848Z,7.06
2018-02-15T20:27:19.869Z,7.12
2018-02-15T20:29:45.753Z,7.11
2018-02-15T20:32:11.651Z,7.10
2018-02-15T20:34:37.543Z,7.12
2018-02-15T20:37:03.452Z,7.12
2018-02-15T20:39:35.534Z,7.14
2018-02-15T20:42:01.436Z,7.16
2018-02-15T20:44:27.334Z,7.11
2018-02-15T20:46:53.234Z,7.01
2018-02-15T20:49:25.145Z,6.96
2018-02-15T20:51:57.184Z,6.96
2018-02-15T20:54:29.288Z,7.02
2018-02-15T20:56:55.259Z,7.01
2018-02-15T20:59:21.148Z,6.91
2018-02-15T21:01:47.066Z,6.86
2018-02-15T21:04:12.934Z,6.84
2018-02-15T21:06:38.838Z,6.79
2018-02-15T21:09:05.554Z,6.86
2018-02-15T21:11:31.461Z,6.88
2018-02-15T21:13:57.384Z,6.82
2018-02-15T21:16:23.262Z,6.80
2018-02-15T21:18:49.155Z,6.83
2018-02-15T21:21:15.034Z,6.81
2018-02-15T21:23:40.894Z,6.81
2018-02-15T21:26:06.818Z,6.83
2018-02-15T21:28:32.685Z,6.82
2018-02-15T21:30:58.565Z,6.81
2018-02-15T21:33:24.757Z,6.75
2018-02-15T21:35:50.675Z,6.82
2018-02-15T21:38:16.585Z,6.82
2018-02-15T21:40:42.569Z,6.78
2018-02-15T21:43:08.469Z,6.83
2018-02-15T21:45:34.362Z,6.85
2018-02-15T21:48:04.068Z,6.86
2018-02-15T21:50:29.972Z,6.81
2018-02-15T21:52:57.370Z,6.74
2018-02-15T21:55:23.255Z,6.72
2018-02-15T21:57:52.152Z,6.73
2018-02-15T22:00:18.051Z,6.69
2018-02-15T22:02:47.621Z,6.61
2018-02-15T22:05:13.485Z,6.64
2018-02-15T22:07:39.362Z,6.68
2018-02-15T22:10:05.246Z,6.72
2018-02-15T22:12:31.131Z,6.79
2018-02-15T22:14:58.658Z,6.79
2018-02-15T22:17:24.577Z,6.77
2018-02-15T22:19:54.205Z,6.72
2018-02-15T22:22:20.082Z,6.70
2018-02-15T22:24:48.923Z,6.66
2018-02-15T22:27:14.762Z,6.44
2018-02-15T22:29:44.047Z,6.37
2018-02-15T22:32:09.869Z,6.32
2018-02-15T22:34:39.068Z,6.41
2018-02-15T22:37:04.900Z,6.42
2018-02-15T22:39:31.873Z,6.42
2018-02-15T22:41:57.727Z,6.42
2018-02-15T22:44:23.590Z,6.42
2018-02-15T22:46:49.451Z,6.47
2018-02-15T22:49:15.334Z,6.48
2018-02-15T22:51:44.361Z,6.32
2018-02-15T22:54:10.223Z,6.55
2018-02-15T22:56:39.637Z,6.57
2018-02-15T22:59:05.494Z,6.56
2018-02-15T23:01:34.833Z,6.60
2018-02-15T23:04:00.682Z,6.63
2018-02-15T23:06:27.870Z,6.70
2018-02-15T23:08:53.691Z,6.66
2018-02-15T23:11:22.469Z,6.69
2018-02-15T23:13:48.312Z,6.67
2018-02-15T23:18:45.088Z,6.69
2018-02-15T23:21:10.967Z,6.75
2018-02-15T23:23:36.803Z,6.68
2018-02-15T23:26:02.723Z,6.75
2018-02-15T23:28:29.634Z,6.72
2018-02-15T23:30:55.487Z,6.80
2018-02-15T23:33:24.977Z,6.81
2018-02-15T23:35:50.845Z,6.74
2018-02-15T23:38:20.029Z,6.76
2018-02-15T23:40:45.892Z,6.85
2018-02-15T23:43:14.865Z,6.84
2018-02-15T23:45:40.697Z,6.81
2018-02-15T23:48:07.897Z,6.82
2018-02-15T23:50:33.764Z,6.77
2018-02-15T23:53:02.694Z,6.84
2018-02-15T23:55:28.520Z,6.74
2018-02-15T23:57:54.378Z,6.81
